createdAt,value
2023-02-12T00:01:08.935Z,78.38
2023-02-12T00:03:35.959Z,67.35
2023-02-12T00:06:02.433Z,71.65
2023-02-12T00:08:29.000Z,74.82
2023-02-12T00:10:55.386Z,77.18
2023-02-12T00:13:21.712Z,75.93
2023-02-12T00:15:48.220Z,72.07
2023-02-12T00:18:15.517Z,67.85
2023-02-12T00:20:41.948Z,81.22
2023-02-12T00:23:08.357Z,70.75
2023-02-12T00:25:34.811Z,71.88
2023-02-12T00:28:01.180Z,71.93
2023-02-12T00:30:27.553Z,73.40
2023-02-12T00:32:55.099Z,75.13
2023-02-12T00:35:21.502Z,69.10
2023-02-12T00:37:49.716Z,69.82
2023-02-12T00:40:16.223Z,67.75
2023-02-12T00:42:42.574Z,65.05
2023-02-12T00:45:09.281Z,63.25
2023-02-12T00:47:35.583Z,64.97
2023-02-12T00:50:02.038Z,61.60
2023-02-12T00:52:28.341Z,63.65
2023-02-12T00:54:54.682Z,60.40
2023-02-12T00:57:21.153Z,59.63
2023-02-12T00:59:49.164Z,61.50
2023-02-12T01:02:18.011Z,67.63
2023-02-12T01:04:44.916Z,60.92
2023-02-12T01:07:11.261Z,64.47
2023-02-12T01:09:37.641Z,64.18
2023-02-12T01:12:04.280Z,62.38
2023-02-12T01:14:30.610Z,65.00
2023-02-12T01:16:58.188Z,63.88
2023-02-12T01:19:24.626Z,63.33
2023-02-12T01:21:51.013Z,61.60
2023-02-12T01:24:17.338Z,64.85
2023-02-12T01:26:43.823Z,64.78
2023-02-12T01:29:10.561Z,60.53
2023-02-12T01:31:39.317Z,66.32
2023-02-12T01:34:06.695Z,68.65
2023-02-12T01:36:33.690Z,65.72
2023-02-12T01:39:02.560Z,60.33
2023-02-12T01:41:32.539Z,63.40
2023-02-12T01:44:11.560Z,67.57
2023-02-12T01:46:38.977Z,64.45
2023-02-12T01:49:09.585Z,61.78
2023-02-12T01:51:36.368Z,64.95
2023-02-12T01:54:07.287Z,61.38
2023-02-12T01:56:34.487Z,63.10
2023-02-12T01:59:01.018Z,62.00
2023-02-12T02:01:30.792Z,63.72
2023-02-12T02:04:03.326Z,62.65
2023-02-12T02:06:36.073Z,62.92
2023-02-12T02:09:04.411Z,66.45
2023-02-12T02:11:50.647Z,65.35
2023-02-12T02:14:32.613Z,59.25
2023-02-12T02:17:43.656Z,62.80
2023-02-12T02:20:42.779Z,67.13
2023-02-12T02:23:16.442Z,70.38
2023-02-12T02:26:10.429Z,69.10
2023-02-12T02:28:58.303Z,66.60
2023-02-12T02:31:33.913Z,66.40
2023-02-12T02:34:12.350Z,63.42
2023-02-12T02:37:16.415Z,63.97
2023-02-12T02:40:02.496Z,63.83
2023-02-12T02:42:46.589Z,59.30
2023-02-12T02:45:20.764Z,60.67
2023-02-12T02:48:04.309Z,67.47
2023-02-12T02:50:34.601Z,71.90
2023-02-12T02:53:12.366Z,62.10
2023-02-12T02:55:45.148Z,65.78
2023-02-12T02:58:20.567Z,66.22
2023-02-12T03:01:04.557Z,73.40
2023-02-12T03:03:34.409Z,67.13
2023-02-12T03:06:26.910Z,62.90
2023-02-12T03:09:00.160Z,67.93
2023-02-12T03:11:34.285Z,68.68
2023-02-12T03:14:10.113Z,70.00
2023-02-12T03:16:46.030Z,61.72
2023-02-12T03:19:18.901Z,66.97
2023-02-12T03:22:02.256Z,65.38
2023-02-12T03:24:47.014Z,67.72
2023-02-12T03:27:19.079Z,70.15
2023-02-12T03:29:46.081Z,60.42
2023-02-12T03:32:33.722Z,64.80
2023-02-12T03:35:21.393Z,73.35
2023-02-12T03:38:07.983Z,69.80
2023-02-12T03:40:40.200Z,68.68
2023-02-12T03:43:15.782Z,70.40
2023-02-12T03:46:08.090Z,67.47
2023-02-12T03:48:46.113Z,70.18
2023-02-12T03:51:25.226Z,73.40
2023-02-12T03:53:51.927Z,70.40
2023-02-12T03:56:25.234Z,65.60
2023-02-12T03:58:51.676Z,70.32
2023-02-12T04:01:18.609Z,61.95
2023-02-12T04:03:45.164Z,67.57
2023-02-12T04:06:26.871Z,72.10
2023-02-12T04:08:55.435Z,67.88
2023-02-12T04:12:01.860Z,74.65
2023-02-12T04:14:44.346Z,69.80
2023-02-12T04:17:29.971Z,74.70
2023-02-12T04:20:15.128Z,68.82
2023-02-12T04:22:59.033Z,66.55
2023-02-12T04:25:40.283Z,64.57
2023-02-12T04:28:22.466Z,68.15
2023-02-12T04:31:20.403Z,66.18
2023-02-12T04:33:54.861Z,59.47
2023-02-12T04:36:24.574Z,65.55
2023-02-12T04:38:55.796Z,62.42
2023-02-12T04:43:48.453Z,66.85
2023-02-12T04:46:14.786Z,63.50
2023-02-12T04:48:53.465Z,62.28
2023-02-12T04:51:20.159Z,64.22
2023-02-12T04:53:46.842Z,64.80
2023-02-12T04:56:13.482Z,67.07
2023-02-12T04:58:41.169Z,64.97
2023-02-12T05:01:08.957Z,67.68
2023-02-12T05:03:35.957Z,73.13
2023-02-12T05:06:06.969Z,66.75
2023-02-12T05:08:33.565Z,65.05
2023-02-12T05:11:08.244Z,69.10
2023-02-12T05:13:35.288Z,65.93
2023-02-12T05:16:06.492Z,71.43
2023-02-12T05:21:02.069Z,67.53
2023-02-12T05:23:30.581Z,76.88
2023-02-12T05:26:02.290Z,73.63
2023-02-12T05:28:28.768Z,72.65
2023-02-12T05:30:55.495Z,74.97
2023-02-12T05:33:21.827Z,72.20
2023-02-12T05:35:48.373Z,67.22
2023-02-12T05:38:14.681Z,68.53
2023-02-12T05:40:42.946Z,68.88
2023-02-12T05:43:10.485Z,73.38
2023-02-12T05:45:37.956Z,68.45
2023-02-12T05:48:04.398Z,69.88
2023-02-12T05:50:30.728Z,65.53
2023-02-12T05:53:00.978Z,70.63
2023-02-12T05:55:27.755Z,76.05
2023-02-12T05:57:54.506Z,69.00
2023-02-12T06:00:21.278Z,72.50
2023-02-12T06:02:47.778Z,74.05
2023-02-12T06:05:14.231Z,76.68
2023-02-12T06:07:40.524Z,68.05
2023-02-12T06:10:07.605Z,74.03
2023-02-12T06:12:33.903Z,70.68
2023-02-12T06:15:00.313Z,73.45
2023-02-12T06:17:26.779Z,68.15
2023-02-12T06:19:53.091Z,73.75
2023-02-12T06:22:19.426Z,74.75
2023-02-12T06:24:45.715Z,74.03
2023-02-12T06:27:12.081Z,72.53
2023-02-12T06:29:38.421Z,71.45
2023-02-12T06:32:05.018Z,71.82
2023-02-12T06:34:31.409Z,75.82
2023-02-12T06:36:57.776Z,77.80
2023-02-12T06:39:24.279Z,79.28
2023-02-12T06:41:50.662Z,80.88
2023-02-12T06:44:17.116Z,78.72
2023-02-12T06:46:43.465Z,79.95
2023-02-12T06:49:12.544Z,73.20
2023-02-12T06:51:41.090Z,83.00
2023-02-12T06:54:13.081Z,80.28
2023-02-12T06:56:39.459Z,76.72
2023-02-12T06:59:05.739Z,75.10
2023-02-12T07:01:32.043Z,75.22
2023-02-12T07:04:01.935Z,70.32
2023-02-12T07:06:29.785Z,66.78
2023-02-12T07:08:57.068Z,76.15
2023-02-12T07:11:25.137Z,78.72
2023-02-12T07:13:51.430Z,84.03
2023-02-12T07:16:18.064Z,82.05
2023-02-12T07:18:45.442Z,81.70
2023-02-12T07:21:13.529Z,85.10
2023-02-12T07:23:40.271Z,78.38
2023-02-12T07:26:17.012Z,85.28
2023-02-12T07:28:44.271Z,80.32
2023-02-12T07:31:16.608Z,72.70
2023-02-12T07:33:43.928Z,81.97
2023-02-12T07:36:15.532Z,81.70
2023-02-12T07:38:42.387Z,75.38
2023-02-12T07:41:14.437Z,82.25
2023-02-12T07:43:43.368Z,84.82
2023-02-12T07:46:18.549Z,83.65
2023-02-12T07:48:46.498Z,88.70
2023-02-12T07:51:15.044Z,98.47
2023-02-12T07:53:42.073Z,108.43
2023-02-12T07:56:16.853Z,107.13
2023-02-12T07:58:45.043Z,95.72
2023-02-12T08:01:23.436Z,94.82
2023-02-12T08:03:51.315Z,74.70
2023-02-12T08:06:24.134Z,75.93
2023-02-12T08:08:52.200Z,72.22
2023-02-12T08:11:18.759Z,82.15
2023-02-12T08:13:45.989Z,81.68
2023-02-12T08:16:15.507Z,82.97
2023-02-12T08:18:42.532Z,98.65
2023-02-12T08:21:13.196Z,96.95
2023-02-12T08:23:40.077Z,96.15
2023-02-12T08:26:14.138Z,126.72
2023-02-12T08:28:51.221Z,148.25
2023-02-12T08:31:23.086Z,147.95
2023-02-12T08:33:51.611Z,114.18
2023-02-12T08:36:20.551Z,113.32
2023-02-12T08:38:47.861Z,121.25
2023-02-12T08:41:26.677Z,122.78
2023-02-12T08:43:55.398Z,109.72
2023-02-12T08:46:24.862Z,96.30
2023-02-12T08:49:03.517Z,148.77
2023-02-12T08:51:32.892Z,131.93
2023-02-12T08:54:01.692Z,118.43
2023-02-12T08:56:32.464Z,107.38
2023-02-12T08:58:59.992Z,101.13
2023-02-12T09:01:29.442Z,99.53
2023-02-12T09:03:56.355Z,111.47
2023-02-12T09:06:24.240Z,129.95
2023-02-12T09:08:51.454Z,114.38
2023-02-12T09:11:32.011Z,115.35
2023-02-12T09:14:00.477Z,121.50
2023-02-12T09:16:28.719Z,116.88
2023-02-12T09:18:55.552Z,122.60
2023-02-12T09:21:22.129Z,119.05
2023-02-12T09:23:49.071Z,127.45
2023-02-12T09:26:25.921Z,115.47
2023-02-12T09:28:53.309Z,130.67
2023-02-12T09:31:26.218Z,141.30
2023-02-12T09:34:03.959Z,127.18
2023-02-12T09:36:31.316Z,127.75
2023-02-12T09:38:59.222Z,119.80
2023-02-12T09:42:07.146Z,113.28
2023-02-12T09:44:41.353Z,129.98
2023-02-12T09:47:43.911Z,125.97
2023-02-12T09:50:46.584Z,111.75
2023-02-12T09:53:17.251Z,100.45
2023-02-12T09:55:43.962Z,100.82
2023-02-12T09:58:16.354Z,92.40
2023-02-12T10:00:44.433Z,92.47
2023-02-12T10:03:16.949Z,96.15
2023-02-12T10:05:51.117Z,103.10
2023-02-12T10:08:47.359Z,120.93
2023-02-12T10:11:37.804Z,111.55
2023-02-12T10:14:21.116Z,113.13
2023-02-12T10:17:31.041Z,102.43
2023-02-12T10:20:31.809Z,109.72
2023-02-12T10:23:29.367Z,107.10
2023-02-12T10:25:59.713Z,97.45
2023-02-12T10:28:39.635Z,93.55
2023-02-12T10:31:15.167Z,96.28
2023-02-12T10:33:45.617Z,94.28
2023-02-12T10:36:37.005Z,101.07
2023-02-12T10:42:16.487Z,98.40
2023-02-12T10:44:42.869Z,104.93
2023-02-12T10:47:18.464Z,106.47
2023-02-12T10:49:45.112Z,114.15
2023-02-12T10:52:19.185Z,108.65
2023-02-12T10:54:49.364Z,118.68
2023-02-12T10:57:18.540Z,120.43
2023-02-12T10:59:47.069Z,121.03
2023-02-12T11:02:27.000Z,128.57
2023-02-12T11:04:54.818Z,123.22
2023-02-12T11:07:22.309Z,109.63
2023-02-12T11:09:50.524Z,118.75
2023-02-12T11:12:36.744Z,114.85
2023-02-12T11:15:07.612Z,118.53
2023-02-12T11:17:40.256Z,127.22
2023-02-12T11:20:15.812Z,120.07
2023-02-12T11:23:01.790Z,123.57
2023-02-12T11:25:33.805Z,112.57
2023-02-12T11:28:17.790Z,108.72
2023-02-12T11:30:55.548Z,122.05
2023-02-12T11:33:34.492Z,121.38
2023-02-12T11:36:15.040Z,117.63
2023-02-12T11:38:51.584Z,111.97
2023-02-12T11:41:26.928Z,121.03
2023-02-12T11:43:53.777Z,117.72
2023-02-12T11:46:26.644Z,115.78
2023-02-12T11:48:55.771Z,108.82
2023-02-12T11:51:29.224Z,121.70
2023-02-12T11:53:59.481Z,118.68
2023-02-12T11:56:41.533Z,112.47
2023-02-12T11:59:36.973Z,111.80
2023-02-12T12:02:21.999Z,106.28
2023-02-12T12:04:51.908Z,101.60
2023-02-12T12:07:28.231Z,102.38
2023-02-12T12:10:01.298Z,99.85
2023-02-12T12:12:43.924Z,98.90
2023-02-12T12:15:37.298Z,106.80
2023-02-12T12:18:57.530Z,96.57
2023-02-12T12:21:42.378Z,99.53
2023-02-12T12:24:14.747Z,104.95
2023-02-12T12:26:47.549Z,99.43
2023-02-12T12:29:22.068Z,97.20
2023-02-12T12:31:59.986Z,110.15
2023-02-12T12:34:28.164Z,103.82
2023-02-12T12:37:32.054Z,99.07
2023-02-12T12:40:17.181Z,92.72
2023-02-12T12:43:01.876Z,98.43
2023-02-12T12:46:00.576Z,99.05
2023-02-12T12:48:59.040Z,91.22
2023-02-12T12:51:40.935Z,90.10
2023-02-12T12:54:25.617Z,95.53
2023-02-12T12:57:05.135Z,94.70
2023-02-12T13:00:02.305Z,93.72
2023-02-12T13:02:38.217Z,99.75
2023-02-12T13:05:19.869Z,89.15
2023-02-12T13:08:04.562Z,99.40
2023-02-12T13:10:49.281Z,90.05
2023-02-12T13:13:20.691Z,95.13
2023-02-12T13:16:19.214Z,95.97
2023-02-12T13:19:09.003Z,92.57
2023-02-12T13:21:44.376Z,97.03
2023-02-12T13:24:38.613Z,103.28
2023-02-12T13:27:12.777Z,87.25
2023-02-12T13:29:44.845Z,84.97
2023-02-12T13:32:19.956Z,95.03
2023-02-12T13:34:47.014Z,88.75
2023-02-12T13:37:19.784Z,88.65
2023-02-12T13:39:49.092Z,92.22
2023-02-12T13:42:46.579Z,88.32
2023-02-12T13:45:48.232Z,86.25
2023-02-12T13:48:35.739Z,85.25
2023-02-12T13:51:15.267Z,84.07
2023-02-12T13:53:57.604Z,77.55
2023-02-12T13:56:42.846Z,66.40
2023-02-12T13:59:34.160Z,67.63
2023-02-12T14:02:24.994Z,60.15
2023-02-12T14:04:56.823Z,58.00
2023-02-12T14:07:24.398Z,55.28
2023-02-12T14:09:50.675Z,55.95
2023-02-12T14:12:40.916Z,55.22
2023-02-12T14:15:32.656Z,56.95
2023-02-12T14:18:01.853Z,83.65
2023-02-12T14:20:32.307Z,78.70
2023-02-12T14:23:04.472Z,73.85
2023-02-12T14:25:39.900Z,63.65
2023-02-12T14:28:28.812Z,60.70
2023-02-12T14:31:23.231Z,55.92
2023-02-12T14:34:11.842Z,55.22
2023-02-12T14:36:46.399Z,52.35
2023-02-12T14:39:18.799Z,56.35
2023-02-12T14:42:07.423Z,56.63
2023-02-12T14:44:38.544Z,51.30
2023-02-12T14:47:36.276Z,54.78
2023-02-12T14:50:12.547Z,49.75
2023-02-12T14:52:42.336Z,54.22
2023-02-12T14:55:24.481Z,59.63
2023-02-12T14:57:55.504Z,54.50
2023-02-12T15:00:34.364Z,59.20
2023-02-12T15:03:12.679Z,69.13
2023-02-12T15:05:56.016Z,59.60
2023-02-12T15:08:22.390Z,61.67
2023-02-12T15:10:52.484Z,55.80
2023-02-12T15:13:30.079Z,51.25
2023-02-12T15:16:15.027Z,73.53
2023-02-12T15:18:41.336Z,68.55
2023-02-12T15:21:20.786Z,55.72
2023-02-12T15:23:57.052Z,54.90
2023-02-12T15:26:27.287Z,77.05
2023-02-12T15:28:55.356Z,76.28
2023-02-12T15:31:27.139Z,63.55
2023-02-12T15:33:56.348Z,57.05
2023-02-12T15:36:25.255Z,48.35
2023-02-12T15:38:54.908Z,48.65
2023-02-12T15:41:48.015Z,56.75
2023-02-12T15:44:32.079Z,51.50
2023-02-12T15:47:14.421Z,47.22
2023-02-12T15:49:42.325Z,46.65
2023-02-12T15:52:17.416Z,43.70
2023-02-12T15:54:45.807Z,43.58
2023-02-12T15:57:19.248Z,44.30
2023-02-12T15:59:53.656Z,45.35
2023-02-12T16:02:25.326Z,43.60
2023-02-12T16:04:51.893Z,43.80
2023-02-12T16:07:19.454Z,37.78
2023-02-12T16:09:46.771Z,39.13
2023-02-12T16:12:15.494Z,36.90
2023-02-12T16:14:50.727Z,28.73
2023-02-12T16:17:27.408Z,31.95
2023-02-12T16:20:19.756Z,26.23
2023-02-12T16:22:49.092Z,29.52
2023-02-12T16:25:16.969Z,24.25
2023-02-12T16:27:57.916Z,22.98
2023-02-12T16:30:27.434Z,22.88
2023-02-12T16:32:54.334Z,21.30
2023-02-12T16:35:33.517Z,24.17
2023-02-12T16:38:03.274Z,21.60
2023-02-12T16:40:33.748Z,18.15
2023-02-12T16:43:22.021Z,18.48
2023-02-12T16:45:49.538Z,19.70
2023-02-12T16:48:20.163Z,18.55
2023-02-12T16:50:52.910Z,18.92
2023-02-12T16:53:26.974Z,20.20
2023-02-12T16:55:53.528Z,20.13
2023-02-12T16:58:19.862Z,28.88
2023-02-12T17:00:46.445Z,32.95
2023-02-12T17:03:14.239Z,29.35
2023-02-12T17:05:43.006Z,24.77
2023-02-12T17:08:22.071Z,24.00
2023-02-12T17:10:48.938Z,23.15
2023-02-12T17:13:16.316Z,23.00
2023-02-12T17:15:49.627Z,19.25
2023-02-12T17:18:18.126Z,19.60
2023-02-12T17:20:51.086Z,22.17
2023-02-12T17:23:17.498Z,19.83
2023-02-12T17:25:43.847Z,24.65
2023-02-12T17:28:10.238Z,27.15
2023-02-12T17:30:37.319Z,28.77
2023-02-12T17:33:04.290Z,37.75
2023-02-12T17:35:30.637Z,44.67
2023-02-12T17:37:56.958Z,40.05
2023-02-12T17:40:23.262Z,39.55
2023-02-12T17:42:50.165Z,37.25
2023-02-12T17:45:17.159Z,34.92
2023-02-12T17:47:43.448Z,31.00
2023-02-12T17:50:14.524Z,36.03
2023-02-12T17:52:41.467Z,32.05
2023-02-12T17:55:10.500Z,37.60
2023-02-12T17:57:37.347Z,42.67
2023-02-12T18:00:05.972Z,37.08
2023-02-12T18:02:37.105Z,36.30
2023-02-12T18:05:04.347Z,29.63
2023-02-12T18:07:35.029Z,28.75
2023-02-12T18:10:01.852Z,29.20
2023-02-12T18:12:30.546Z,26.33
2023-02-12T18:14:58.751Z,24.00
2023-02-12T18:17:25.757Z,27.45
2023-02-12T18:19:53.317Z,23.98
2023-02-12T18:22:20.043Z,25.85
2023-02-12T18:24:46.490Z,25.05
2023-02-12T18:27:14.034Z,27.25
2023-02-12T18:29:40.956Z,27.13
2023-02-12T18:32:07.894Z,30.40
2023-02-12T18:34:34.521Z,30.90
2023-02-12T18:37:00.871Z,30.77
2023-02-12T18:39:27.174Z,30.58
2023-02-12T18:41:53.490Z,27.90
2023-02-12T18:44:19.881Z,32.83
2023-02-12T18:46:46.382Z,33.40
2023-02-12T18:49:13.986Z,36.05
2023-02-12T18:51:40.935Z,74.70
2023-02-12T18:54:10.703Z,57.30
2023-02-12T18:56:40.785Z,45.72
2023-02-12T18:59:08.069Z,38.88
2023-02-12T19:01:35.843Z,39.92
2023-02-12T19:04:05.142Z,39.60
2023-02-12T19:06:33.442Z,41.55
2023-02-12T19:09:03.090Z,44.45
2023-02-12T19:11:30.474Z,40.33
2023-02-12T19:13:57.246Z,41.53
2023-02-12T19:16:24.938Z,43.78
2023-02-12T19:18:54.702Z,46.53
2023-02-12T19:21:22.508Z,49.70
2023-02-12T19:23:52.290Z,48.05
2023-02-12T19:26:18.676Z,45.13
2023-02-12T19:28:45.121Z,59.33
2023-02-12T19:31:15.958Z,81.40
2023-02-12T19:33:43.415Z,80.55
2023-02-12T19:36:12.468Z,77.47
2023-02-12T19:38:39.410Z,82.15
2023-02-12T19:41:18.853Z,84.90
2023-02-12T19:43:45.688Z,77.72
2023-02-12T19:46:17.259Z,59.03
2023-02-12T19:48:45.104Z,48.67
2023-02-12T19:51:17.331Z,44.55
2023-02-12T19:53:44.298Z,41.42
2023-02-12T19:56:10.855Z,45.45
2023-02-12T19:58:37.836Z,59.25
2023-02-12T20:01:22.051Z,54.00
2023-02-12T20:03:49.458Z,55.28
2023-02-12T20:06:22.758Z,47.38
2023-02-12T20:08:49.506Z,39.17
2023-02-12T20:11:19.420Z,37.67
2023-02-12T20:13:46.004Z,35.28
2023-02-12T20:16:18.204Z,30.17
2023-02-12T20:18:46.195Z,34.08
2023-02-12T20:21:16.153Z,30.92
2023-02-12T20:23:43.157Z,31.83
2023-02-12T20:26:11.411Z,29.95
2023-02-12T20:28:38.614Z,45.17
2023-02-12T20:31:17.320Z,58.58
2023-02-12T20:33:44.694Z,50.45
2023-02-12T20:36:12.610Z,50.35
2023-02-12T20:38:40.819Z,51.88
2023-02-12T20:41:09.212Z,36.83
2023-02-12T20:43:36.237Z,32.88
2023-02-12T20:46:14.606Z,32.67
2023-02-12T20:48:41.998Z,32.58
2023-02-12T20:51:11.148Z,30.77
2023-02-12T20:53:37.572Z,30.17
2023-02-12T20:56:06.428Z,30.40
2023-02-12T20:58:32.889Z,32.35
2023-02-12T21:01:07.052Z,30.25
2023-02-12T21:03:33.859Z,29.98
2023-02-12T21:06:00.727Z,33.92
2023-02-12T21:08:27.247Z,32.58
2023-02-12T21:11:24.490Z,74.45
2023-02-12T21:13:59.271Z,35.75
2023-02-12T21:16:34.643Z,31.75
2023-02-12T21:19:01.350Z,38.10
2023-02-12T21:21:30.867Z,29.13
2023-02-12T21:23:58.893Z,31.35
2023-02-12T21:26:27.672Z,32.15
2023-02-12T21:28:56.146Z,34.00
2023-02-12T21:31:25.633Z,32.67
2023-02-12T21:33:54.069Z,32.33
2023-02-12T21:36:24.146Z,40.08
2023-02-12T21:38:51.724Z,34.13
2023-02-12T21:41:22.065Z,26.27
2023-02-12T21:43:54.219Z,30.23
2023-02-12T21:46:22.279Z,37.35
2023-02-12T21:48:49.653Z,39.25
2023-02-12T21:51:37.844Z,34.70
2023-02-12T21:54:08.353Z,38.60
2023-02-12T21:56:39.984Z,32.60
2023-02-12T21:59:08.540Z,34.03
2023-02-12T22:01:36.616Z,34.22
2023-02-12T22:04:05.063Z,32.85
2023-02-12T22:06:31.385Z,29.30
2023-02-12T22:09:03.429Z,28.48
2023-02-12T22:11:29.740Z,29.42
2023-02-12T22:13:56.043Z,29.08
2023-02-12T22:16:25.379Z,28.08
2023-02-12T22:18:59.064Z,25.50
2023-02-12T22:21:27.697Z,31.67
2023-02-12T22:23:54.811Z,24.77
2023-02-12T22:26:26.487Z,33.60
2023-02-12T22:28:55.704Z,29.60
2023-02-12T22:31:25.852Z,28.10
2023-02-12T22:33:55.753Z,28.55
2023-02-12T22:36:24.905Z,25.50
2023-02-12T22:38:53.147Z,28.48
2023-02-12T22:41:20.584Z,29.25
2023-02-12T22:43:47.638Z,27.50
2023-02-12T22:46:15.013Z,27.13
2023-02-12T22:48:42.014Z,31.17
2023-02-12T22:51:20.853Z,28.33
2023-02-12T22:53:47.658Z,30.23
2023-02-12T22:56:14.694Z,28.08
2023-02-12T22:58:41.337Z,28.65
2023-02-12T23:01:10.261Z,40.25
2023-02-12T23:03:39.569Z,39.95
2023-02-12T23:06:10.030Z,46.60
2023-02-12T23:08:36.805Z,36.00
2023-02-12T23:11:03.228Z,42.40
2023-02-12T23:13:30.439Z,29.88
2023-02-12T23:15:57.904Z,35.33
2023-02-12T23:18:24.974Z,30.98
2023-02-12T23:20:52.265Z,37.47
2023-02-12T23:23:20.113Z,39.63
2023-02-12T23:25:46.734Z,36.83
2023-02-12T23:28:13.636Z,34.30
2023-02-12T23:30:40.060Z,33.17
2023-02-12T23:33:06.487Z,37.33
2023-02-12T23:35:33.030Z,34.90
2023-02-12T23:37:59.491Z,33.75
2023-02-12T23:40:25.807Z,35.42
2023-02-12T23:42:52.223Z,32.28
2023-02-12T23:45:18.559Z,38.25
2023-02-12T23:47:44.857Z,38.25
2023-02-12T23:50:11.212Z,36.50
2023-02-12T23:52:37.613Z,34.08
2023-02-12T23:55:04.246Z,53.58
2023-02-12T23:57:30.653Z,63.30
2023-02-12T23:59:56.997Z,68.38
